• Join FlightAware (Why Join?)
  • Login
  • US Flag 
01:54PM EST


 

Airport Tracker/Info


-or-


 

Live Flight TrackerFlight Track Log ✈ CPT8773 ✈ 07-Jun-2013 ✈ KCPR - KCOD

Flight Track Log - Related Links

Times and Time Zones

All times are in EDT time to prevent confusion due to time zone crossing. See the CPT8773 flight status page for this flight to view local times or setup timezone preferences in your user account.

Time Position Orientation Groundspeed Altitude Reporting Facility
EDT Latitude Longitude Course Direction KTS MPH feet Rate Location/Type
09:24AM 42.9808 -106.5122 295° West 114 131 7,800  Level Denver Center
09:25AM 43.0128 -106.5275 341° North 120 138 8,600 780 Climbing Denver Center
09:26AM 43.0425 -106.5425 340° North 121 139 9,400 840 Climbing Denver Center
09:27AM 43.0775 -106.5583 342° North 120 138 10,400 780 Climbing Denver Center
09:28AM 43.1428 -106.3708 308° West  Level FlightAware Approximate
09:28AM 43.1036 -106.5736 337° Northwest 114 131 11,100  Level Denver Center
09:29AM 43.1620 -106.4193 295° West  Level FlightAware Approximate
09:29AM 43.1364 -106.5750 358° North 118 136 11,800  Level Denver Center
09:30AM 43.1792 -106.5808 354° North 134 154 12,000 60 Climbing Denver Center
09:31AM 43.2219 -106.5908 350° North 156 180 12,000 -60 Level Denver Center
09:32AM 43.2744 -106.6167 340° North 177 204 11,900  Descending Denver Center
09:33AM 43.2975 -106.6669 302° West 165 190 12,000  Climbing Denver Center
09:34AM 43.3214 -106.7156 304° West 162 186 12,000  Level Denver Center
09:35AM 43.3514 -106.7694 307° West 160 184 12,000  Level Denver Center
09:36AM 43.3719 -106.8103 305° West 161 185 12,000  Level Denver Center
09:37AM 43.4050 -106.8742 305° West 161 185 12,000  Level Denver Center
09:38AM 43.4242 -106.9186 301° West 164 189 12,100  Climbing Salt Lake Center
09:39AM 43.4519 -106.9689 307° West 163 188 12,000 -60 Descending Salt Lake Center
09:40AM 43.4803 -107.0258 304° West 161 185 12,000  Level Salt Lake Center
09:41AM 43.5050 -107.0761 304° West 164 189 12,000  Level Salt Lake Center
09:42AM 43.5325 -107.1236 309° West 167 192 12,000  Level Salt Lake Center
09:43AM 43.5619 -107.1778 307° West 160 184 12,000  Level Denver Center
09:44AM 43.5908 -107.2325 306° West 158 182 12,000  Level Denver Center
09:45AM 43.6114 -107.2794 301° West 154 177 12,000  Level Denver Center
09:46AM 43.6342 -107.3256 304° West 152 175 12,000  Level Salt Lake Center
09:47AM 43.6594 -107.3719 307° West 154 177 12,100  Climbing Salt Lake Center
09:48AM 43.6875 -107.4250 306° West 154 177 12,000 -60 Descending Salt Lake Center
09:49AM 43.7131 -107.4686 309° West 153 176 12,000  Level Salt Lake Center
09:50AM 43.7375 -107.5169 305° West 156 180 12,000  Level Salt Lake Center
09:51AM 43.7656 -107.5725 305° West 157 181 12,000  Level Salt Lake Center
09:52AM 43.7903 -107.6186 307° West 157 181 12,000  Level Salt Lake Center
09:53AM 43.8189 -107.6731 306° West 156 180 12,000  Level Salt Lake Center
09:54AM 43.8442 -107.7200 307° West 157 181 12,000  Level Salt Lake Center
09:55AM 43.8689 -107.7664 306° West 157 181 12,000  Level Salt Lake Center
09:56AM 43.8975 -107.8208 306° West 156 180 12,000  Level Salt Lake Center
09:57AM 43.9219 -107.8672 306° West 156 180 12,000  Level Salt Lake Center
09:58AM 43.9506 -107.9228 306° West 157 181 12,000  Level Salt Lake Center
09:59AM 43.9747 -107.9700 305° West 157 181 12,000  Level Salt Lake Center
10:01AM 44.0000 -108.0156 308° West 156 180 12,000  Level Salt Lake Center
10:02AM 44.0283 -108.0706 306° West 157 181 12,000  Level Salt Lake Center
10:03AM 44.0531 -108.1172 306° West 156 180 12,000  Level Salt Lake Center
10:04AM 44.0806 -108.1742 304° West 157 181 12,000  Level Salt Lake Center
10:05AM 44.1050 -108.2206 306° West 157 181 12,000 -120 Level Salt Lake Center
10:06AM 44.1294 -108.2675 306° West 156 180 11,800 -360 Descending Salt Lake Center
10:07AM 44.1611 -108.3269 307° West 162 186 11,300 -480 Descending Salt Lake Center
10:08AM 44.1875 -108.3792 305° West 168 193 10,900 -420 Descending Salt Lake Center
10:09AM 44.2133 -108.4300 305° West 168 193 10,500 -480 Descending Salt Lake Center
10:10AM 44.2461 -108.4886 308° West 170 196 10,000 -420 Descending Salt Lake Center
10:11AM 44.2722 -108.5403 305° West 170 196 9,700 -360 Descending Salt Lake Center
10:11AM 44.2850 -108.5656 305° West 169 194 9,500 -540 Descending Salt Lake Center